ROT156 LIMC-LROP
Flight info
| Callsign | ROT156 |
|---|---|
| Flight time | N/A |
| Altitude | 35000 |
| Route | SRN6SXOSKOR6S/35R OSKOR L615 ELTAR DCT SOVOX DCT MAGAM DCT KOPRY DCT MAVIR DCT INVED DCT NEKUL DCT LAMIT DCT TOSVI |
| Aircraft | B738/M-SDE2E3FGHIRWXY/LB1 |
Departure
| Time | 2026-05-05 21:15 |
|---|---|
| Airport | Milan Malpensa International Airport (LIMC) |
Arrival
| Time | N/A |
|---|---|
| Airport | Bucharest Henri Coandă International Airport (LROP) |
| Time | Latitude | Longitude | Altitude | Speed | Heading |
|---|---|---|---|---|---|
| 2026-05-05 19:58 | 45.63163 | 8.71437 | 777 ft | 0 kts | 167° |
| 2026-05-05 20:46 | 45.63174 | 8.71433 | 776 ft | 2 kts | 167° |
| 2026-05-05 20:46 | 45.63189 | 8.71428 | 776 ft | 2 kts | 167° |
| 2026-05-05 20:47 | 45.63203 | 8.71424 | 776 ft | 2 kts | 167° |
| 2026-05-05 20:47 | 45.63213 | 8.71421 | 776 ft | 2 kts | 167° |
| 2026-05-05 20:47 | 45.63226 | 8.71411 | 776 ft | 2 kts | 136° |
| 2026-05-05 20:47 | 45.63235 | 8.71394 | 776 ft | 2 kts | 113° |
| 2026-05-05 20:48 | 45.63238 | 8.71374 | 776 ft | 2 kts | 89° |
| 2026-05-05 20:48 | 45.63238 | 8.71363 | 776 ft | 1 kts | 75° |
| 2026-05-05 20:48 | 45.63237 | 8.71356 | 776 ft | 0 kts | 78° |
| 2026-05-05 20:50 | 45.63240 | 8.71381 | 776 ft | 4 kts | 78° |
| 2026-05-05 20:51 | 45.63250 | 8.71449 | 776 ft | 9 kts | 78° |
| 2026-05-05 20:51 | 45.63267 | 8.71560 | 776 ft | 13 kts | 80° |
| 2026-05-05 20:51 | 45.63283 | 8.71697 | 776 ft | 14 kts | 79° |
| 2026-05-05 20:51 | 45.63295 | 8.71820 | 776 ft | 11 kts | 102° |
| 2026-05-05 20:52 | 45.63219 | 8.71876 | 776 ft | 15 kts | 172° |
| 2026-05-05 20:52 | 45.63119 | 8.71904 | 776 ft | 15 kts | 169° |
| 2026-05-05 20:52 | 45.63004 | 8.71936 | 776 ft | 18 kts | 170° |
| 2026-05-05 20:52 | 45.62877 | 8.71970 | 776 ft | 19 kts | 169° |
| 2026-05-05 20:53 | 45.62735 | 8.72010 | 776 ft | 22 kts | 168° |
| 2026-05-05 20:53 | 45.62565 | 8.72063 | 776 ft | 26 kts | 167° |
| 2026-05-05 20:53 | 45.62420 | 8.72094 | 776 ft | 19 kts | 174° |
| 2026-05-05 20:53 | 45.62281 | 8.72132 | 776 ft | 22 kts | 168° |
| 2026-05-05 20:54 | 45.62148 | 8.72170 | 776 ft | 17 kts | 169° |
| 2026-05-05 20:54 | 45.62014 | 8.72208 | 776 ft | 21 kts | 168° |
| 2026-05-05 20:54 | 45.61865 | 8.72251 | 776 ft | 22 kts | 169° |
| 2026-05-05 20:54 | 45.61715 | 8.72292 | 776 ft | 21 kts | 169° |
| 2026-05-05 20:55 | 45.61557 | 8.72336 | 776 ft | 23 kts | 169° |
| 2026-05-05 20:55 | 45.61442 | 8.72367 | 776 ft | 14 kts | 173° |
| 2026-05-05 20:55 | 45.61380 | 8.72271 | 776 ft | 16 kts | 263° |
| 2026-05-05 20:55 | 45.61315 | 8.72204 | 776 ft | 14 kts | 171° |
| 2026-05-05 20:56 | 45.61205 | 8.72236 | 776 ft | 17 kts | 170° |
| 2026-05-05 20:56 | 45.61082 | 8.72268 | 776 ft | 19 kts | 169° |
| 2026-05-05 20:56 | 45.60934 | 8.72307 | 776 ft | 23 kts | 169° |
| 2026-05-05 20:56 | 45.60772 | 8.72352 | 776 ft | 18 kts | 169° |
| 2026-05-05 20:57 | 45.60656 | 8.72427 | 776 ft | 19 kts | 118° |
| 2026-05-05 20:57 | 45.60632 | 8.72612 | 776 ft | 19 kts | 95° |
| 2026-05-05 20:57 | 45.60617 | 8.72817 | 776 ft | 22 kts | 97° |
| 2026-05-05 20:57 | 45.60600 | 8.73043 | 776 ft | 23 kts | 97° |
| 2026-05-05 20:58 | 45.60622 | 8.73258 | 776 ft | 14 kts | 41° |
| 2026-05-05 20:58 | 45.60713 | 8.73324 | 776 ft | 15 kts | 21° |
| 2026-05-05 20:58 | 45.60820 | 8.73380 | 776 ft | 17 kts | 22° |
| 2026-05-05 20:58 | 45.60950 | 8.73396 | 776 ft | 19 kts | 348° |
| 2026-05-05 20:59 | 45.61098 | 8.73354 | 776 ft | 23 kts | 349° |
| 2026-05-05 20:59 | 45.61237 | 8.73315 | 776 ft | 4 kts | 349° |
| 2026-05-05 20:59 | 45.61238 | 8.73315 | 776 ft | 0 kts | 349° |
| 2026-05-05 21:00 | 45.61240 | 8.73314 | 776 ft | 1 kts | 349° |
| 2026-05-05 21:00 | 45.61269 | 8.73306 | 776 ft | 6 kts | 349° |
| 2026-05-05 21:00 | 45.61327 | 8.73291 | 776 ft | 10 kts | 350° |
| 2026-05-05 21:00 | 45.61414 | 8.73267 | 776 ft | 14 kts | 349° |
| 2026-05-05 21:01 | 45.61521 | 8.73239 | 776 ft | 16 kts | 349° |
| 2026-05-05 21:01 | 45.61615 | 8.73230 | 776 ft | 13 kts | 22° |
| 2026-05-05 21:01 | 45.61638 | 8.73255 | 776 ft | 0 kts | 47° |
| 2026-05-05 21:01 | 45.61639 | 8.73258 | 776 ft | 0 kts | 72° |
| 2026-05-05 21:02 | 45.61635 | 8.73267 | 776 ft | 3 kts | 122° |
| 2026-05-05 21:02 | 45.61623 | 8.73309 | 776 ft | 5 kts | 89° |
| 2026-05-05 21:02 | 45.61624 | 8.73317 | 776 ft | 0 kts | 80° |
| 2026-05-05 21:03 | 45.61625 | 8.73326 | 776 ft | 3 kts | 80° |
| 2026-05-05 21:04 | 45.61631 | 8.73378 | 776 ft | 7 kts | 81° |
| 2026-05-05 21:04 | 45.61633 | 8.73391 | 776 ft | 0 kts | 81° |
| 2026-05-05 21:08 | 45.61633 | 8.73396 | 776 ft | 2 kts | 81° |
| 2026-05-05 21:08 | 45.61631 | 8.73438 | 776 ft | 6 kts | 112° |
| 2026-05-05 21:08 | 45.61626 | 8.73448 | 776 ft | 0 kts | 121° |
| 2026-05-05 21:10 | 45.61626 | 8.73449 | 776 ft | 1 kts | 121° |
| 2026-05-05 21:10 | 45.61614 | 8.73479 | 776 ft | 5 kts | 121° |
| 2026-05-05 21:10 | 45.61594 | 8.73530 | 776 ft | 0 kts | 113° |
| 2026-05-05 21:12 | 45.61593 | 8.73533 | 776 ft | 0 kts | 113° |
| 2026-05-05 21:12 | 45.61589 | 8.73551 | 776 ft | 3 kts | 102° |
| 2026-05-05 21:12 | 45.61586 | 8.73596 | 776 ft | 0 kts | 90° |
| 2026-05-05 21:14 | 45.61586 | 8.73613 | 776 ft | 6 kts | 89° |
| 2026-05-05 21:14 | 45.61620 | 8.73721 | 776 ft | 14 kts | 29° |
| 2026-05-05 21:15 | 45.61848 | 8.73673 | 777 ft | 61 kts | 349° |
| 2026-05-05 21:15 | 45.62605 | 8.73461 | 777 ft | 158 kts | 350° |
| 2026-05-05 21:15 | 45.63857 | 8.73115 | 1228 ft | 201 kts | 348° |
| 2026-05-05 21:15 | 45.65179 | 8.72866 | 2604 ft | 195 kts | 5° |
| 2026-05-05 21:16 | 45.66406 | 8.73667 | 3356 ft | 211 kts | 43° |
| 2026-05-05 21:16 | 45.67265 | 8.75408 | 4206 ft | 222 kts | 60° |
| 2026-05-05 21:16 | 45.67916 | 8.77495 | 4804 ft | 247 kts | 65° |
| 2026-05-05 21:16 | 45.68893 | 8.79461 | 5814 ft | 246 kts | 41° |
| 2026-05-05 21:17 | 45.70275 | 8.80892 | 6075 ft | 241 kts | 33° |
| 2026-05-05 21:17 | 45.71555 | 8.82279 | 5993 ft | 222 kts | 44° |
| 2026-05-05 21:17 | 45.72329 | 8.84178 | 5999 ft | 232 kts | 75° |
| 2026-05-05 21:17 | 45.72293 | 8.86527 | 5994 ft | 241 kts | 107° |
| 2026-05-05 21:18 | 45.71424 | 8.88541 | 5993 ft | 244 kts | 137° |
| 2026-05-05 21:18 | 45.69958 | 8.89705 | 6001 ft | 243 kts | 162° |
| 2026-05-05 21:18 | 45.68314 | 8.90482 | 5986 ft | 253 kts | 156° |
| 2026-05-05 21:18 | 45.66962 | 8.92043 | 5987 ft | 264 kts | 123° |
| 2026-05-05 21:19 | 45.66499 | 8.94637 | 6784 ft | 281 kts | 84° |
| 2026-05-05 21:19 | 45.66858 | 8.97319 | 8131 ft | 281 kts | 78° |
| 2026-05-05 21:19 | 45.67052 | 9.00063 | 9218 ft | 289 kts | 88° |
| 2026-05-05 21:19 | 45.67061 | 9.02885 | 10361 ft | 295 kts | 90° |
| 2026-05-05 21:20 | 45.67048 | 9.05941 | 11026 ft | 317 kts | 90° |
| 2026-05-05 21:20 | 45.67013 | 9.09089 | 12044 ft | 325 kts | 91° |
| 2026-05-05 21:20 | 45.66967 | 9.12354 | 12964 ft | 335 kts | 91° |
| 2026-05-05 21:20 | 45.66916 | 9.15733 | 13942 ft | 342 kts | 91° |
| 2026-05-05 21:21 | 45.66862 | 9.19138 | 14863 ft | 350 kts | 91° |
| 2026-05-05 21:21 | 45.66804 | 9.22627 | 15767 ft | 357 kts | 91° |
| 2026-05-05 21:21 | 45.66742 | 9.26195 | 16642 ft | 364 kts | 91° |
| 2026-05-05 21:21 | 45.66678 | 9.29839 | 17494 ft | 370 kts | 91° |
| 2026-05-05 21:22 | 45.66611 | 9.33557 | 17953 ft | 381 kts | 91° |
| 2026-05-05 21:22 | 45.66542 | 9.37307 | 17988 ft | 376 kts | 91° |
| 2026-05-05 21:22 | 45.66472 | 9.41036 | 17992 ft | 374 kts | 91° |
| 2026-05-05 21:22 | 45.66402 | 9.44742 | 17994 ft | 374 kts | 91° |
| 2026-05-05 21:23 | 45.66329 | 9.48460 | 17993 ft | 374 kts | 91° |
| 2026-05-05 21:23 | 45.66256 | 9.52151 | 17993 ft | 374 kts | 91° |
| 2026-05-05 21:23 | 45.66181 | 9.55911 | 17993 ft | 374 kts | 91° |
| 2026-05-05 21:23 | 45.66106 | 9.59575 | 17993 ft | 374 kts | 91° |
| 2026-05-05 21:24 | 45.66028 | 9.63337 | 17993 ft | 374 kts | 91° |
| 2026-05-05 21:24 | 45.65950 | 9.67033 | 17993 ft | 374 kts | 91° |
| 2026-05-05 21:24 | 45.65871 | 9.70762 | 17993 ft | 375 kts | 91° |
| 2026-05-05 21:24 | 45.65790 | 9.74483 | 17993 ft | 374 kts | 91° |
| 2026-05-05 21:25 | 45.65709 | 9.78191 | 17993 ft | 374 kts | 91° |
| 2026-05-05 21:25 | 45.65625 | 9.81917 | 17993 ft | 374 kts | 91° |
| 2026-05-05 21:25 | 45.65541 | 9.85625 | 17993 ft | 375 kts | 91° |
| 2026-05-05 21:25 | 45.65456 | 9.89324 | 18178 ft | 371 kts | 91° |
| 2026-05-05 21:26 | 45.65369 | 9.93041 | 18567 ft | 377 kts | 91° |
| 2026-05-05 21:26 | 45.65281 | 9.96799 | 18939 ft | 382 kts | 91° |
| 2026-05-05 21:26 | 45.65191 | 10.00552 | 19309 ft | 385 kts | 91° |
| 2026-05-05 21:26 | 45.65097 | 10.04408 | 19687 ft | 387 kts | 91° |
| 2026-05-05 21:27 | 45.65002 | 10.08269 | 20062 ft | 390 kts | 91° |
| 2026-05-05 21:27 | 45.64908 | 10.12123 | 20434 ft | 393 kts | 91° |
| 2026-05-05 21:27 | 45.64873 | 10.16040 | 20809 ft | 396 kts | 89° |
| 2026-05-05 21:27 | 45.64884 | 10.19985 | 21185 ft | 399 kts | 88° |
| 2026-05-05 21:28 | 45.64885 | 10.23963 | 21560 ft | 402 kts | 89° |
| 2026-05-05 21:28 | 45.64876 | 10.27970 | 21935 ft | 405 kts | 89° |
| 2026-05-05 21:28 | 45.64865 | 10.32021 | 22312 ft | 408 kts | 89° |
| 2026-05-05 21:28 | 45.64853 | 10.36068 | 22686 ft | 411 kts | 89° |
| 2026-05-05 21:29 | 45.64840 | 10.40203 | 23065 ft | 414 kts | 88° |
| 2026-05-05 21:29 | 45.64824 | 10.44307 | 23438 ft | 417 kts | 88° |
| 2026-05-05 21:29 | 45.64811 | 10.48475 | 23815 ft | 420 kts | 88° |
| 2026-05-05 21:29 | 45.64796 | 10.52645 | 24189 ft | 423 kts | 88° |
| 2026-05-05 21:30 | 45.64779 | 10.56830 | 24561 ft | 426 kts | 88° |
| 2026-05-05 21:30 | 45.64820 | 10.61078 | 24935 ft | 428 kts | 84° |
| 2026-05-05 21:30 | 45.65168 | 10.65335 | 25314 ft | 429 kts | 78° |
| 2026-05-05 21:30 | 45.65669 | 10.69535 | 25690 ft | 431 kts | 77° |
| 2026-05-05 21:31 | 45.66159 | 10.73714 | 26061 ft | 431 kts | 78° |
| 2026-05-05 21:31 | 45.66646 | 10.77963 | 26437 ft | 432 kts | 77° |
| 2026-05-05 21:31 | 45.67137 | 10.82206 | 26812 ft | 432 kts | 77° |
| 2026-05-05 21:31 | 45.67629 | 10.86404 | 27184 ft | 432 kts | 76° |
| 2026-05-05 21:32 | 45.68125 | 10.90627 | 27559 ft | 431 kts | 76° |
| 2026-05-05 21:32 | 45.68621 | 10.94848 | 27935 ft | 431 kts | 76° |
| 2026-05-05 21:32 | 45.69117 | 10.99073 | 28310 ft | 431 kts | 75° |
| 2026-05-05 21:32 | 45.69613 | 11.03303 | 28687 ft | 430 kts | 75° |
| 2026-05-05 21:33 | 45.70105 | 11.07510 | 29062 ft | 430 kts | 74° |
| 2026-05-05 21:33 | 45.70594 | 11.11691 | 29435 ft | 429 kts | 74° |
| 2026-05-05 21:33 | 45.71082 | 11.15874 | 29809 ft | 428 kts | 73° |
| 2026-05-05 21:33 | 45.71569 | 11.20063 | 30185 ft | 427 kts | 73° |
| 2026-05-05 21:34 | 45.72055 | 11.24247 | 30561 ft | 426 kts | 73° |
| 2026-05-05 21:34 | 45.72536 | 11.28412 | 30936 ft | 425 kts | 73° |